Fort Chipewyan, Canada
Current Conditions -  °F | °C
As of 5:00 AM on Monday 20 Oct 2014 (Local Time) from CYPY Reporting Station
Scattered Clouds Scattered Clouds  
Wind Chill: 42°   Ceiling: Unl
Heat Index: 46°   Visibility: 9mi
Dew Point: 41°   Wind: 9mph
Humidity: 81%   Direction: 110°ESE
Pressure: 29.54"   Gusts: NA
Location:  58.71°N, 111.15°W
Report Text: CYPY 201100Z AUTO 11008KT 9SM SCT230 08/05 A2954 RMK SLP012
Loading
Personal Weather Stations






























Interactive Weather Map New forecast layout! Learn more

10-Day Weather Forecast

Advertisements
Track Severe Weather on mobile